createdAt,value
2017-08-02T00:00:53.449Z,14.67
2017-08-02T00:03:21.935Z,26.70
2017-08-02T00:05:49.436Z,15.50
2017-08-02T00:08:16.969Z,13.70
2017-08-02T00:10:44.441Z,19.27
2017-08-02T00:13:12.061Z,19.43
2017-08-02T00:15:39.621Z,17.40
2017-08-02T00:18:07.486Z,13.90
2017-08-02T00:20:35.011Z,18.30
2017-08-02T00:23:02.509Z,21.47
2017-08-02T00:25:30.057Z,16.53
2017-08-02T00:27:57.554Z,18.60
2017-08-02T00:30:25.082Z,17.40
2017-08-02T00:32:52.543Z,23.60
2017-08-02T00:35:20.055Z,19.03
2017-08-02T00:37:47.575Z,15.50
2017-08-02T00:40:15.107Z,15.50
2017-08-02T00:42:43.949Z,18.23
2017-08-02T00:45:11.526Z,18.50
2017-08-02T00:47:39.032Z,18.83
2017-08-02T00:50:06.350Z,16.30
2017-08-02T00:52:33.624Z,15.40
2017-08-02T00:55:00.926Z,12.03
2017-08-02T00:57:28.196Z,12.00
2017-08-02T00:59:55.463Z,16.33
2017-08-02T01:02:22.771Z,14.97
2017-08-02T01:04:50.044Z,24.57
2017-08-02T01:07:17.311Z,14.73
2017-08-02T01:09:44.604Z,14.20
2017-08-02T01:12:12.715Z,12.70
2017-08-02T01:14:40.022Z,14.90
2017-08-02T01:17:07.287Z,12.30
2017-08-02T01:19:34.559Z,14.60
2017-08-02T01:22:01.899Z,11.40
2017-08-02T01:24:29.160Z,15.23
2017-08-02T01:26:56.427Z,12.10
2017-08-02T01:29:23.732Z,13.60
2017-08-02T01:31:50.996Z,16.37
2017-08-02T01:34:18.267Z,14.23
2017-08-02T01:36:45.568Z,12.97
2017-08-02T01:39:12.840Z,16.57
2017-08-02T01:41:40.145Z,13.43
2017-08-02T01:44:07.411Z,10.03
2017-08-02T01:46:34.675Z,11.47
2017-08-02T01:49:01.985Z,14.07
2017-08-02T01:51:29.251Z,12.30
2017-08-02T01:53:56.515Z,16.27
2017-08-02T01:56:23.806Z,12.17
2017-08-02T01:58:51.118Z,15.00
2017-08-02T02:01:18.380Z,10.53
2017-08-02T02:03:45.656Z,10.07
2017-08-02T02:06:12.960Z,14.57
2017-08-02T02:08:40.223Z,10.40
2017-08-02T02:11:07.487Z,17.00
2017-08-02T02:13:34.811Z,10.47
2017-08-02T02:16:02.089Z,14.70
2017-08-02T02:18:29.368Z,11.80
2017-08-02T02:20:56.659Z,14.47
2017-08-02T02:23:23.933Z,11.90
2017-08-02T02:25:51.240Z,12.80
2017-08-02T02:28:18.603Z,13.60
2017-08-02T02:30:45.877Z,16.60
2017-08-02T02:33:13.191Z,15.70
2017-08-02T02:35:40.459Z,18.60
2017-08-02T02:38:07.747Z,19.23
2017-08-02T02:40:35.039Z,12.10
2017-08-02T02:43:02.335Z,14.17
2017-08-02T02:45:29.635Z,13.30
2017-08-02T02:47:56.911Z,26.00
2017-08-02T02:50:24.219Z,12.37
2017-08-02T02:52:51.486Z,11.50
2017-08-02T02:55:18.751Z,10.70
2017-08-02T02:57:46.059Z,14.63
2017-08-02T03:00:13.331Z,15.63
2017-08-02T03:02:40.596Z,10.80
2017-08-02T03:05:07.888Z,18.93
2017-08-02T03:07:35.164Z,13.40
2017-08-02T03:10:02.460Z,14.63
2017-08-02T03:12:29.728Z,13.60
2017-08-02T03:14:57.023Z,17.17
2017-08-02T03:17:24.318Z,14.37
2017-08-02T03:19:51.593Z,16.17
2017-08-02T03:22:18.892Z,13.77
2017-08-02T03:24:46.159Z,13.57
2017-08-02T03:27:13.455Z,14.23
2017-08-02T03:29:40.735Z,13.87
2017-08-02T03:32:08.035Z,17.57
2017-08-02T03:34:35.327Z,11.33
2017-08-02T03:37:02.646Z,12.20
2017-08-02T03:39:29.911Z,16.07
2017-08-02T03:41:57.179Z,15.30
2017-08-02T03:44:24.496Z,18.37
2017-08-02T03:46:51.768Z,15.30
2017-08-02T03:49:19.035Z,14.73
2017-08-02T03:51:46.344Z,18.30
2017-08-02T03:54:13.617Z,16.13
2017-08-02T03:56:40.890Z,14.93
2017-08-02T03:59:08.190Z,15.63
2017-08-02T04:01:35.508Z,18.60
2017-08-02T04:04:02.780Z,14.00
2017-08-02T04:06:30.048Z,15.03
2017-08-02T04:08:57.343Z,16.30
2017-08-02T04:11:24.619Z,14.63
2017-08-02T04:13:51.926Z,14.90
2017-08-02T04:16:19.215Z,15.73
2017-08-02T04:18:46.467Z,12.83
2017-08-02T04:21:13.766Z,12.00
2017-08-02T04:23:41.039Z,11.50
2017-08-02T04:26:08.343Z,23.27
2017-08-02T04:28:35.626Z,10.90
2017-08-02T04:31:02.889Z,17.13
2017-08-02T04:33:30.181Z,14.50
2017-08-02T04:35:57.455Z,11.83
2017-08-02T04:38:24.764Z,17.83
2017-08-02T04:40:52.023Z,10.60
2017-08-02T04:43:19.299Z,17.40
2017-08-02T04:45:46.583Z,11.20
2017-08-02T04:48:13.871Z,9.83
2017-08-02T04:50:41.171Z,13.40
2017-08-02T04:53:08.476Z,12.10
2017-08-02T04:55:35.743Z,18.70
2017-08-02T04:58:03.049Z,15.20
2017-08-02T05:00:30.313Z,15.20
2017-08-02T05:02:57.614Z,14.27
2017-08-02T05:05:24.883Z,15.70
2017-08-02T05:07:52.143Z,14.90
2017-08-02T05:10:19.435Z,11.87
2017-08-02T05:12:46.704Z,18.03
2017-08-02T05:15:14.039Z,11.83
2017-08-02T05:17:41.303Z,8.47
2017-08-02T05:20:08.572Z,10.23
2017-08-02T05:22:35.864Z,12.70
2017-08-02T05:25:03.194Z,6.00
2017-08-02T05:27:30.451Z,9.40
2017-08-02T05:29:57.714Z,9.40
2017-08-02T05:32:25.016Z,11.90
2017-08-02T05:34:52.279Z,8.60
2017-08-02T05:37:19.542Z,14.40
2017-08-02T05:39:46.839Z,9.57
2017-08-02T05:42:14.104Z,7.00
2017-08-02T05:44:41.366Z,6.27
2017-08-02T05:47:08.667Z,13.60
2017-08-02T05:49:35.944Z,13.00
2017-08-02T05:52:03.225Z,13.93
2017-08-02T05:54:30.523Z,8.47
2017-08-02T05:56:57.787Z,9.97
2017-08-02T05:59:25.047Z,12.73
2017-08-02T06:04:26.212Z,9.27
2017-08-02T06:06:53.512Z,11.53
2017-08-02T06:09:20.820Z,11.23
2017-08-02T06:11:48.099Z,12.77
2017-08-02T06:14:15.415Z,8.33
2017-08-02T06:16:42.671Z,9.53
2017-08-02T06:19:09.922Z,12.17
2017-08-02T06:21:37.247Z,8.23
2017-08-02T06:24:04.506Z,8.53
2017-08-02T06:26:31.774Z,15.37
2017-08-02T06:28:59.080Z,8.67
2017-08-02T06:31:26.348Z,8.33
2017-08-02T06:33:53.602Z,9.13
2017-08-02T06:36:20.905Z,8.63
2017-08-02T06:38:48.173Z,13.40
2017-08-02T06:41:15.422Z,8.07
2017-08-02T06:43:42.730Z,9.80
2017-08-02T06:46:09.988Z,9.93
2017-08-02T06:48:37.251Z,6.57
2017-08-02T06:51:04.547Z,9.77
2017-08-02T06:53:31.815Z,8.53
2017-08-02T06:55:59.101Z,7.63
2017-08-02T06:58:26.367Z,10.10
2017-08-02T07:00:53.672Z,5.17
2017-08-02T07:03:20.928Z,9.10
2017-08-02T07:05:48.195Z,8.63
2017-08-02T07:08:15.529Z,5.47
2017-08-02T07:10:42.765Z,6.43
2017-08-02T07:13:10.048Z,4.50
2017-08-02T07:15:37.344Z,5.47
2017-08-02T07:18:04.598Z,9.03
2017-08-02T07:20:31.888Z,5.30
2017-08-02T07:22:59.143Z,7.13
2017-08-02T07:25:26.474Z,4.67
2017-08-02T07:27:53.731Z,10.60
2017-08-02T07:30:20.991Z,4.70
2017-08-02T07:32:48.288Z,5.43
2017-08-02T07:35:15.546Z,4.33
2017-08-02T07:37:42.831Z,4.70
2017-08-02T07:40:10.091Z,4.20
2017-08-02T07:42:37.374Z,5.33
2017-08-02T07:45:04.647Z,5.20
2017-08-02T07:47:31.959Z,4.23
2017-08-02T07:49:59.210Z,4.50
2017-08-02T07:52:26.488Z,6.70
2017-08-02T07:54:53.783Z,5.77
2017-08-02T07:57:21.039Z,4.90
2017-08-02T07:59:48.308Z,5.80
2017-08-02T08:02:15.598Z,9.43
2017-08-02T08:04:42.864Z,5.30
2017-08-02T08:07:10.212Z,5.90
2017-08-02T08:09:37.546Z,4.43
2017-08-02T08:12:04.807Z,4.27
2017-08-02T08:14:32.066Z,6.33
2017-08-02T08:16:59.430Z,3.93
2017-08-02T08:19:26.783Z,5.70
2017-08-02T08:21:54.144Z,7.67
2017-08-02T08:24:21.408Z,9.87
2017-08-02T08:26:48.690Z,9.03
2017-08-02T08:29:15.971Z,11.10
2017-08-02T08:31:43.359Z,4.63
2017-08-02T08:34:10.644Z,4.93
2017-08-02T08:36:37.966Z,4.33
2017-08-02T08:39:05.250Z,8.57
2017-08-02T08:41:32.571Z,9.37
2017-08-02T08:43:59.837Z,4.07
2017-08-02T08:46:27.099Z,10.30
2017-08-02T08:48:54.395Z,8.50
2017-08-02T08:51:21.655Z,6.00
2017-08-02T08:53:48.910Z,8.50
2017-08-02T08:56:16.202Z,8.13
2017-08-02T08:58:43.454Z,4.40
2017-08-02T09:01:10.763Z,5.47
2017-08-02T09:03:38.067Z,7.87
2017-08-02T09:06:05.327Z,8.90
2017-08-02T09:08:32.676Z,6.80
2017-08-02T09:10:59.936Z,5.17
2017-08-02T09:13:27.278Z,9.47
2017-08-02T09:15:54.530Z,3.93
2017-08-02T09:18:21.891Z,3.30
2017-08-02T09:20:49.187Z,7.00
2017-08-02T09:23:16.446Z,3.73
2017-08-02T09:25:43.743Z,6.73
2017-08-02T09:28:10.994Z,5.30
2017-08-02T09:30:38.261Z,4.30
2017-08-02T09:33:05.611Z,4.33
2017-08-02T09:35:32.866Z,4.30
2017-08-02T09:38:00.121Z,2.90
2017-08-02T09:40:27.405Z,7.17
2017-08-02T09:42:54.718Z,3.57
2017-08-02T09:45:21.975Z,5.07
2017-08-02T09:47:49.231Z,6.80
2017-08-02T09:50:16.594Z,7.03
2017-08-02T09:52:43.888Z,4.43
2017-08-02T09:55:11.167Z,6.30
2017-08-02T09:57:38.476Z,3.80
2017-08-02T10:00:05.735Z,4.67
2017-08-02T10:02:33.065Z,5.03
2017-08-02T10:05:00.353Z,5.57
2017-08-02T10:07:27.665Z,3.97
2017-08-02T10:09:54.930Z,4.43
2017-08-02T10:12:22.192Z,4.00
2017-08-02T10:14:49.471Z,3.70
2017-08-02T10:17:16.766Z,5.57
2017-08-02T10:19:44.186Z,6.87
2017-08-02T10:22:11.504Z,5.03
2017-08-02T10:24:38.763Z,3.70
2017-08-02T10:27:06.055Z,6.43
2017-08-02T10:29:33.311Z,5.07
2017-08-02T10:32:00.619Z,6.10
2017-08-02T10:34:27.977Z,7.33
2017-08-02T10:36:55.271Z,8.00
2017-08-02T10:39:22.536Z,5.43
2017-08-02T10:41:49.794Z,3.60
2017-08-02T10:44:17.095Z,6.53
2017-08-02T10:46:44.438Z,4.80
2017-08-02T10:49:11.703Z,3.40
2017-08-02T10:51:39.012Z,4.87
2017-08-02T10:54:06.274Z,2.53
2017-08-02T10:56:33.564Z,3.30
2017-08-02T10:59:00.852Z,4.60
2017-08-02T11:01:28.115Z,5.00
2017-08-02T11:03:55.419Z,4.77
2017-08-02T11:06:22.714Z,3.90
2017-08-02T11:08:50.011Z,5.97
2017-08-02T11:11:17.269Z,6.93
2017-08-02T11:13:44.529Z,4.97
2017-08-02T11:16:11.826Z,6.30
2017-08-02T11:18:39.155Z,5.70
2017-08-02T11:21:06.412Z,5.93
2017-08-02T11:23:33.719Z,11.20
2017-08-02T11:26:00.982Z,7.13
2017-08-02T11:28:28.244Z,3.43
2017-08-02T11:30:55.526Z,9.97
2017-08-02T11:33:22.827Z,5.77
2017-08-02T11:35:50.126Z,5.27
2017-08-02T11:38:17.487Z,5.83
2017-08-02T11:40:44.782Z,5.63
2017-08-02T11:43:12.047Z,5.97
2017-08-02T11:45:39.330Z,4.83
2017-08-02T11:48:06.588Z,7.40
2017-08-02T11:50:33.892Z,3.17
2017-08-02T11:53:01.157Z,6.03
2017-08-02T11:55:28.415Z,8.90
2017-08-02T11:57:55.735Z,3.47
2017-08-02T12:00:22.987Z,6.37
2017-08-02T12:02:50.248Z,4.93
2017-08-02T12:05:17.559Z,4.93
2017-08-02T12:07:44.848Z,5.23
2017-08-02T12:10:12.191Z,10.30
2017-08-02T12:12:39.475Z,6.87
2017-08-02T12:15:06.775Z,6.93
2017-08-02T12:17:34.039Z,4.10
2017-08-02T12:20:01.304Z,3.90
2017-08-02T12:22:28.590Z,4.73
2017-08-02T12:24:55.883Z,6.40
2017-08-02T12:27:23.174Z,4.23
2017-08-02T12:29:50.440Z,3.47
2017-08-02T12:32:17.695Z,6.23
2017-08-02T12:34:44.987Z,4.57
2017-08-02T12:37:12.294Z,4.30
2017-08-02T12:39:39.603Z,5.20
2017-08-02T12:42:06.871Z,4.50
2017-08-02T12:44:34.146Z,7.77
2017-08-02T12:47:01.449Z,5.10
2017-08-02T12:49:28.708Z,6.47
2017-08-02T12:51:56.013Z,8.87
2017-08-02T12:54:23.298Z,3.77
2017-08-02T12:56:50.583Z,5.90
2017-08-02T12:59:18.032Z,4.87
2017-08-02T13:01:45.314Z,7.10
2017-08-02T13:04:12.622Z,3.20
2017-08-02T13:06:39.930Z,5.57
2017-08-02T13:09:07.289Z,6.40
2017-08-02T13:11:34.586Z,4.20
2017-08-02T13:14:01.851Z,3.90
2017-08-02T13:16:29.118Z,6.37
2017-08-02T13:18:56.404Z,6.67
2017-08-02T13:21:23.667Z,5.40
2017-08-02T13:23:50.956Z,8.77
2017-08-02T13:26:18.270Z,4.50
2017-08-02T13:28:45.531Z,7.10
2017-08-02T13:31:12.882Z,3.57
2017-08-02T13:33:40.144Z,4.70
2017-08-02T13:36:07.486Z,6.30
2017-08-02T13:38:34.775Z,4.17
2017-08-02T13:41:02.120Z,2.93
2017-08-02T13:43:29.411Z,4.37
2017-08-02T13:45:56.679Z,4.23
2017-08-02T13:48:23.966Z,2.80
2017-08-02T13:50:51.313Z,3.17
2017-08-02T13:53:18.574Z,7.30
2017-08-02T13:55:45.834Z,3.47
2017-08-02T13:58:13.132Z,3.93
2017-08-02T14:00:40.429Z,5.43
2017-08-02T14:03:07.691Z,8.00
2017-08-02T14:05:34.958Z,3.40
2017-08-02T14:08:02.244Z,2.93
2017-08-02T14:10:29.542Z,5.50
2017-08-02T14:12:56.862Z,4.10
2017-08-02T14:15:24.115Z,4.60
2017-08-02T14:17:52.078Z,4.83
2017-08-02T14:20:19.362Z,5.70
2017-08-02T14:22:46.620Z,4.53
2017-08-02T14:25:13.956Z,3.33
2017-08-02T14:27:41.210Z,4.17
2017-08-02T14:30:08.471Z,4.27
2017-08-02T14:32:35.780Z,4.53
2017-08-02T14:35:03.037Z,4.17
2017-08-02T14:37:30.291Z,6.03
2017-08-02T14:39:57.595Z,4.17
2017-08-02T14:42:24.877Z,5.13
2017-08-02T14:44:52.222Z,4.50
2017-08-02T14:47:19.579Z,4.30
2017-08-02T14:49:46.869Z,3.40
2017-08-02T14:52:14.125Z,9.67
2017-08-02T14:54:41.422Z,6.93
2017-08-02T14:57:08.683Z,3.10
2017-08-02T14:59:35.943Z,3.70
2017-08-02T15:02:03.242Z,3.83
2017-08-02T15:04:30.560Z,3.80
2017-08-02T15:06:57.835Z,5.40
2017-08-02T15:09:25.123Z,4.30
2017-08-02T15:11:52.406Z,3.47
2017-08-02T15:14:19.712Z,4.13
2017-08-02T15:16:46.970Z,7.33
2017-08-02T15:19:14.233Z,6.93
2017-08-02T15:21:41.530Z,5.60
2017-08-02T15:24:08.799Z,3.23
2017-08-02T15:26:36.142Z,5.90
2017-08-02T15:29:03.412Z,3.90
2017-08-02T15:31:30.759Z,4.40
2017-08-02T15:33:58.107Z,8.50
2017-08-02T15:36:25.368Z,4.33
2017-08-02T15:38:52.628Z,4.37
2017-08-02T15:41:19.971Z,8.80
2017-08-02T15:43:47.231Z,3.80
2017-08-02T15:46:14.516Z,4.10
2017-08-02T15:48:41.838Z,3.20
2017-08-02T15:51:09.198Z,5.20
2017-08-02T15:53:36.450Z,3.83
2017-08-02T15:56:03.799Z,3.30
2017-08-02T15:58:31.091Z,5.00
2017-08-02T16:00:58.347Z,3.50
2017-08-02T16:03:25.610Z,5.17
2017-08-02T16:05:52.921Z,4.13
2017-08-02T16:08:20.266Z,4.50
2017-08-02T16:10:47.579Z,3.90
2017-08-02T16:13:14.834Z,4.07
2017-08-02T16:15:42.099Z,3.17
2017-08-02T16:18:09.399Z,3.53
2017-08-02T16:20:36.653Z,4.37
2017-08-02T16:23:04.003Z,4.20
2017-08-02T16:25:31.355Z,4.90
2017-08-02T16:27:58.619Z,3.80
2017-08-02T16:30:25.870Z,4.60
2017-08-02T16:32:53.156Z,4.23
2017-08-02T16:35:20.411Z,6.50
2017-08-02T16:37:47.699Z,3.90
2017-08-02T16:40:14.952Z,5.13
2017-08-02T16:42:42.256Z,5.10
2017-08-02T16:45:09.511Z,4.07
2017-08-02T16:47:36.770Z,5.27
2017-08-02T16:50:04.069Z,6.90
2017-08-02T16:52:31.450Z,4.73
2017-08-02T16:54:58.716Z,4.87
2017-08-02T16:57:26.071Z,5.00
2017-08-02T16:59:53.359Z,5.50
2017-08-02T17:02:20.662Z,6.00
2017-08-02T17:04:47.932Z,8.67
2017-08-02T17:07:15.187Z,5.13
2017-08-02T17:09:42.491Z,6.53
2017-08-02T17:12:09.783Z,5.77
2017-08-02T17:14:37.140Z,4.37
2017-08-02T17:17:04.808Z,5.13
2017-08-02T17:19:32.154Z,6.10
2017-08-02T17:21:59.418Z,7.63
2017-08-02T17:24:26.719Z,7.20
2017-08-02T17:26:54.024Z,5.00
2017-08-02T17:29:21.275Z,6.10
2017-08-02T17:31:48.634Z,6.40
2017-08-02T17:34:15.900Z,5.97
2017-08-02T17:36:43.247Z,8.03
2017-08-02T17:39:10.486Z,9.30
2017-08-02T17:41:37.790Z,5.93
2017-08-02T17:44:05.050Z,9.03
2017-08-02T17:46:32.343Z,7.77
2017-08-02T17:48:59.608Z,8.87
2017-08-02T17:51:26.916Z,7.83
2017-08-02T17:53:54.190Z,6.40
2017-08-02T17:56:21.478Z,6.40
2017-08-02T17:58:48.769Z,6.80
2017-08-02T18:01:16.035Z,7.27
2017-08-02T18:03:43.662Z,5.33
2017-08-02T18:06:10.994Z,5.37
2017-08-02T18:08:38.272Z,4.93
2017-08-02T18:11:05.612Z,7.10
2017-08-02T18:13:32.959Z,12.20
2017-08-02T18:16:00.219Z,6.93
2017-08-02T18:18:27.571Z,8.80
2017-08-02T18:20:54.860Z,7.60
2017-08-02T18:23:22.119Z,9.90
2017-08-02T18:25:49.500Z,11.33
2017-08-02T18:28:16.792Z,8.00
2017-08-02T18:30:44.065Z,5.77
2017-08-02T18:33:11.360Z,11.67
2017-08-02T18:35:38.832Z,12.30
2017-08-02T18:38:06.131Z,5.70
2017-08-02T18:40:33.435Z,5.73
2017-08-02T18:43:00.690Z,10.23
2017-08-02T18:45:27.954Z,8.00
2017-08-02T18:47:55.243Z,7.70
2017-08-02T18:50:22.508Z,6.73
2017-08-02T18:52:49.810Z,10.97
2017-08-02T18:55:17.070Z,6.10
2017-08-02T18:57:44.535Z,7.70
2017-08-02T19:00:11.813Z,7.80
2017-08-02T19:02:39.070Z,8.50
2017-08-02T19:05:06.371Z,7.50
2017-08-02T19:07:33.671Z,16.10
2017-08-02T19:10:00.968Z,10.07
2017-08-02T19:12:28.255Z,10.30
2017-08-02T19:14:55.543Z,9.60
2017-08-02T19:17:22.895Z,7.63
2017-08-02T19:19:50.217Z,9.20
2017-08-02T19:22:17.528Z,9.77
2017-08-02T19:24:44.847Z,10.03
2017-08-02T19:27:12.124Z,6.50
2017-08-02T19:29:39.415Z,8.37
2017-08-02T19:32:06.718Z,7.37
2017-08-02T19:34:34.195Z,8.33
2017-08-02T19:37:01.454Z,9.07
2017-08-02T19:39:28.714Z,5.33
2017-08-02T19:41:56.032Z,9.87
2017-08-02T19:44:23.312Z,7.73
2017-08-02T19:46:50.660Z,14.27
2017-08-02T19:49:17.999Z,10.83
2017-08-02T19:51:45.264Z,13.20
2017-08-02T19:54:12.602Z,7.93
2017-08-02T19:56:39.958Z,12.73
2017-08-02T19:59:07.238Z,20.10
2017-08-02T20:01:34.540Z,10.40
2017-08-02T20:04:01.847Z,6.03
2017-08-02T20:06:29.110Z,10.50
2017-08-02T20:08:56.375Z,15.33
2017-08-02T20:11:23.791Z,12.43
2017-08-02T20:13:51.061Z,8.20
2017-08-02T20:16:18.316Z,10.03
2017-08-02T20:18:45.601Z,7.70
2017-08-02T20:21:12.851Z,7.40
2017-08-02T20:23:40.127Z,8.73
2017-08-02T20:26:07.391Z,9.87
2017-08-02T20:28:34.673Z,10.20
2017-08-02T20:31:01.971Z,12.67
2017-08-02T20:33:29.255Z,12.13
2017-08-02T20:35:56.523Z,11.37
2017-08-02T20:38:23.849Z,8.30
2017-08-02T20:40:51.109Z,7.00
2017-08-02T20:43:18.383Z,9.33
2017-08-02T20:45:45.663Z,8.63
2017-08-02T20:48:13.856Z,7.70
2017-08-02T20:50:41.119Z,10.43
2017-08-02T20:53:08.397Z,8.33
2017-08-02T20:55:35.679Z,14.60
2017-08-02T20:58:02.964Z,7.97
2017-08-02T21:00:30.231Z,12.70
2017-08-02T21:02:57.517Z,7.63
2017-08-02T21:05:24.775Z,6.77
2017-08-02T21:07:52.147Z,9.63
2017-08-02T21:10:19.415Z,15.43
2017-08-02T21:12:46.675Z,7.83
2017-08-02T21:15:13.963Z,10.07
2017-08-02T21:17:41.272Z,9.37
2017-08-02T21:20:08.545Z,6.73
2017-08-02T21:22:35.816Z,12.00
2017-08-02T21:25:03.091Z,7.17
2017-08-02T21:27:30.356Z,10.90
2017-08-02T21:29:57.647Z,14.23
2017-08-02T21:32:24.990Z,14.97
2017-08-02T21:34:52.274Z,6.00
2017-08-02T21:37:19.603Z,11.33
2017-08-02T21:39:46.883Z,7.13
2017-08-02T21:42:14.153Z,7.30
2017-08-02T21:44:41.431Z,6.40
2017-08-02T21:47:08.716Z,6.50
2017-08-02T21:49:36.101Z,14.67
2017-08-02T21:52:03.347Z,8.63
2017-08-02T21:54:30.626Z,6.63
2017-08-02T21:56:57.886Z,8.77
2017-08-02T21:59:25.379Z,7.60
2017-08-02T22:01:52.651Z,11.50
2017-08-02T22:04:19.928Z,8.83
2017-08-02T22:06:47.188Z,8.50
2017-08-02T22:09:14.655Z,11.07
2017-08-02T22:11:41.971Z,6.73
2017-08-02T22:14:09.329Z,6.97
2017-08-02T22:16:36.607Z,12.67
2017-08-02T22:19:03.862Z,7.03
2017-08-02T22:21:31.196Z,6.00
2017-08-02T22:23:58.458Z,10.03
2017-08-02T22:26:25.998Z,9.27
2017-08-02T22:28:53.313Z,9.67
2017-08-02T22:31:20.601Z,6.40
2017-08-02T22:33:48.098Z,7.43
2017-08-02T22:36:15.903Z,10.70
2017-08-02T22:38:43.174Z,10.83
2017-08-02T22:41:10.542Z,7.10
2017-08-02T22:43:37.794Z,8.17
2017-08-02T22:46:05.076Z,6.47
2017-08-02T22:48:32.341Z,7.10
2017-08-02T22:50:59.669Z,7.13
2017-08-02T22:53:26.922Z,6.53
2017-08-02T22:55:54.276Z,8.57
2017-08-02T22:58:21.628Z,9.87
2017-08-02T23:00:48.910Z,10.33
2017-08-02T23:03:16.244Z,7.77
2017-08-02T23:05:43.531Z,13.13
2017-08-02T23:08:10.792Z,9.10
2017-08-02T23:10:38.103Z,11.10
2017-08-02T23:13:05.443Z,9.20
2017-08-02T23:15:32.710Z,6.90
2017-08-02T23:17:59.989Z,9.17
2017-08-02T23:20:27.246Z,6.73
2017-08-02T23:22:54.520Z,9.83
2017-08-02T23:25:21.782Z,12.13
2017-08-02T23:27:49.067Z,8.53
2017-08-02T23:30:16.338Z,11.70
2017-08-02T23:32:43.614Z,9.00
2017-08-02T23:35:10.874Z,13.77
2017-08-02T23:37:38.164Z,11.27
2017-08-02T23:40:05.426Z,11.83
2017-08-02T23:42:32.800Z,9.73
2017-08-02T23:45:00.068Z,10.80
2017-08-02T23:47:27.346Z,9.73
2017-08-02T23:49:54.611Z,13.00
2017-08-02T23:52:21.920Z,10.87
2017-08-02T23:54:49.182Z,9.77
2017-08-02T23:57:16.463Z,12.07
2017-08-02T23:59:43.741Z,11.20
